sensor_id;sensor_type;location;lat;lon;timestamp;P1;durP1;ratioP1;P2;durP2;ratioP2
12212;SDS011;6169;44.158;22.788;2022-07-01T00:03:52;7.03;;;3.78;;
12212;SDS011;6169;44.158;22.788;2022-07-01T00:08:55;6.05;;;4.10;;
12212;SDS011;6169;44.158;22.788;2022-07-01T00:13:57;9.23;;;4.20;;
12212;SDS011;6169;44.158;22.788;2022-07-01T00:19:01;5.88;;;3.95;;
12212;SDS011;6169;44.158;22.788;2022-07-01T00:24:04;5.20;;;4.10;;
12212;SDS011;6169;44.158;22.788;2022-07-01T00:29:07;6.47;;;4.45;;
12212;SDS011;6169;44.158;22.788;2022-07-01T00:34:11;6.30;;;4.28;;
12212;SDS011;6169;44.158;22.788;2022-07-01T00:39:13;6.38;;;4.47;;
12212;SDS011;6169;44.158;22.788;2022-07-01T00:44:16;6.88;;;4.65;;
12212;SDS011;6169;44.158;22.788;2022-07-01T00:49:20;7.90;;;5.10;;
12212;SDS011;6169;44.158;22.788;2022-07-01T00:54:23;7.07;;;4.55;;
12212;SDS011;6169;44.158;22.788;2022-07-01T00:59:26;6.28;;;4.68;;
12212;SDS011;6169;44.158;22.788;2022-07-01T01:04:33;9.75;;;4.60;;
12212;SDS011;6169;44.158;22.788;2022-07-01T01:09:36;6.15;;;4.53;;
12212;SDS011;6169;44.158;22.788;2022-07-01T01:14:48;5.95;;;4.35;;
12212;SDS011;6169;44.158;22.788;2022-07-01T01:19:52;6.28;;;4.28;;
12212;SDS011;6169;44.158;22.788;2022-07-01T01:24:56;8.23;;;5.00;;
12212;SDS011;6169;44.158;22.788;2022-07-01T01:30:00;8.25;;;4.20;;
12212;SDS011;6169;44.158;22.788;2022-07-01T01:35:02;7.45;;;4.95;;
12212;SDS011;6169;44.158;22.788;2022-07-01T01:40:07;8.27;;;5.90;;
12212;SDS011;6169;44.158;22.788;2022-07-01T01:45:10;5.65;;;5.00;;
12212;SDS011;6169;44.158;22.788;2022-07-01T01:50:13;7.65;;;5.35;;
12212;SDS011;6169;44.158;22.788;2022-07-01T01:55:18;6.25;;;4.70;;
12212;SDS011;6169;44.158;22.788;2022-07-01T02:00:20;8.52;;;4.28;;
12212;SDS011;6169;44.158;22.788;2022-07-01T02:05:22;8.10;;;4.80;;
12212;SDS011;6169;44.158;22.788;2022-07-01T02:10:26;5.18;;;4.28;;
12212;SDS011;6169;44.158;22.788;2022-07-01T02:15:29;5.93;;;4.20;;
12212;SDS011;6169;44.158;22.788;2022-07-01T02:20:32;7.20;;;4.60;;
12212;SDS011;6169;44.158;22.788;2022-07-01T02:25:36;12.85;;;5.45;;
12212;SDS011;6169;44.158;22.788;2022-07-01T02:30:39;6.82;;;5.03;;
12212;SDS011;6169;44.158;22.788;2022-07-01T02:35:41;8.40;;;5.57;;
12212;SDS011;6169;44.158;22.788;2022-07-01T02:40:45;7.63;;;5.32;;
12212;SDS011;6169;44.158;22.788;2022-07-01T02:45:48;9.98;;;4.85;;
12212;SDS011;6169;44.158;22.788;2022-07-01T02:50:50;7.72;;;4.60;;
12212;SDS011;6169;44.158;22.788;2022-07-01T02:55:54;5.38;;;4.30;;
12212;SDS011;6169;44.158;22.788;2022-07-01T03:00:57;6.18;;;4.75;;
12212;SDS011;6169;44.158;22.788;2022-07-01T03:05:59;5.97;;;5.28;;
12212;SDS011;6169;44.158;22.788;2022-07-01T03:11:03;6.50;;;5.05;;
12212;SDS011;6169;44.158;22.788;2022-07-01T03:16:05;8.25;;;5.57;;
12212;SDS011;6169;44.158;22.788;2022-07-01T03:21:08;7.32;;;5.13;;
12212;SDS011;6169;44.158;22.788;2022-07-01T03:26:11;10.07;;;5.15;;
12212;SDS011;6169;44.158;22.788;2022-07-01T03:31:15;8.40;;;5.57;;
12212;SDS011;6169;44.158;22.788;2022-07-01T03:36:17;10.77;;;5.30;;
12212;SDS011;6169;44.158;22.788;2022-07-01T03:41:21;11.32;;;4.95;;
12212;SDS011;6169;44.158;22.788;2022-07-01T03:46:23;13.73;;;5.97;;
12212;SDS011;6169;44.158;22.788;2022-07-01T03:51:25;10.88;;;6.63;;
12212;SDS011;6169;44.158;22.788;2022-07-01T03:56:29;10.60;;;5.22;;
12212;SDS011;6169;44.158;22.788;2022-07-01T04:01:31;10.75;;;6.32;;
12212;SDS011;6169;44.158;22.788;2022-07-01T04:06:34;8.23;;;4.70;;
12212;SDS011;6169;44.158;22.788;2022-07-01T04:11:38;5.75;;;4.88;;
12212;SDS011;6169;44.158;22.788;2022-07-01T04:16:41;7.35;;;5.50;;
12212;SDS011;6169;44.158;22.788;2022-07-01T04:21:43;6.32;;;5.05;;
12212;SDS011;6169;44.158;22.788;2022-07-01T04:27:05;10.32;;;5.10;;
12212;SDS011;6169;44.158;22.788;2022-07-01T04:32:07;8.00;;;5.22;;
12212;SDS011;6169;44.158;22.788;2022-07-01T04:37:09;8.57;;;6.05;;
12212;SDS011;6169;44.158;22.788;2022-07-01T04:42:13;8.45;;;5.40;;
12212;SDS011;6169;44.158;22.788;2022-07-01T04:47:18;11.65;;;6.47;;
12212;SDS011;6169;44.158;22.788;2022-07-01T04:52:21;9.73;;;5.78;;
12212;SDS011;6169;44.158;22.788;2022-07-01T04:57:25;12.40;;;5.72;;
12212;SDS011;6169;44.158;22.788;2022-07-01T05:02:27;7.43;;;5.40;;
12212;SDS011;6169;44.158;22.788;2022-07-01T05:07:29;8.77;;;6.35;;
12212;SDS011;6169;44.158;22.788;2022-07-01T05:12:33;8.38;;;6.88;;
12212;SDS011;6169;44.158;22.788;2022-07-01T05:17:36;7.03;;;6.32;;
12212;SDS011;6169;44.158;22.788;2022-07-01T05:22:56;11.93;;;6.97;;
12212;SDS011;6169;44.158;22.788;2022-07-01T05:27:59;7.78;;;6.18;;
12212;SDS011;6169;44.158;22.788;2022-07-01T05:33:02;8.55;;;6.25;;
12212;SDS011;6169;44.158;22.788;2022-07-01T05:38:04;9.48;;;6.88;;
12212;SDS011;6169;44.158;22.788;2022-07-01T05:43:08;7.28;;;6.30;;
12212;SDS011;6169;44.158;22.788;2022-07-01T05:48:10;8.10;;;6.82;;
12212;SDS011;6169;44.158;22.788;2022-07-01T05:53:13;7.93;;;6.47;;
12212;SDS011;6169;44.158;22.788;2022-07-01T05:58:16;9.73;;;6.55;;
12212;SDS011;6169;44.158;22.788;2022-07-01T06:03:19;9.30;;;6.63;;
12212;SDS011;6169;44.158;22.788;2022-07-01T06:08:21;8.13;;;6.32;;
12212;SDS011;6169;44.158;22.788;2022-07-01T06:13:25;8.55;;;6.43;;
12212;SDS011;6169;44.158;22.788;2022-07-01T06:18:29;9.00;;;6.82;;
12212;SDS011;6169;44.158;22.788;2022-07-01T06:23:32;14.68;;;7.60;;
12212;SDS011;6169;44.158;22.788;2022-07-01T06:28:36;11.93;;;6.90;;
12212;SDS011;6169;44.158;22.788;2022-07-01T06:33:38;14.93;;;8.20;;
12212;SDS011;6169;44.158;22.788;2022-07-01T06:38:40;11.95;;;6.00;;
12212;SDS011;6169;44.158;22.788;2022-07-01T06:43:44;8.85;;;6.82;;
12212;SDS011;6169;44.158;22.788;2022-07-01T06:48:46;15.35;;;7.00;;
12212;SDS011;6169;44.158;22.788;2022-07-01T06:53:49;20.75;;;7.40;;
12212;SDS011;6169;44.158;22.788;2022-07-01T06:58:53;13.18;;;6.80;;
12212;SDS011;6169;44.158;22.788;2022-07-01T07:03:55;16.92;;;7.85;;
12212;SDS011;6169;44.158;22.788;2022-07-01T07:08:57;11.35;;;7.30;;
12212;SDS011;6169;44.158;22.788;2022-07-01T07:14:01;12.88;;;6.60;;
12212;SDS011;6169;44.158;22.788;2022-07-01T07:19:03;12.35;;;6.85;;
12212;SDS011;6169;44.158;22.788;2022-07-01T07:24:06;10.10;;;6.32;;
12212;SDS011;6169;44.158;22.788;2022-07-01T07:29:10;15.32;;;7.00;;
12212;SDS011;6169;44.158;22.788;2022-07-01T07:34:13;14.02;;;6.32;;
12212;SDS011;6169;44.158;22.788;2022-07-01T07:39:15;9.93;;;5.88;;
12212;SDS011;6169;44.158;22.788;2022-07-01T07:44:19;11.80;;;7.15;;
12212;SDS011;6169;44.158;22.788;2022-07-01T07:49:21;18.20;;;6.82;;
12212;SDS011;6169;44.158;22.788;2022-07-01T07:54:24;9.40;;;5.90;;
12212;SDS011;6169;44.158;22.788;2022-07-01T07:59:28;6.78;;;5.35;;
12212;SDS011;6169;44.158;22.788;2022-07-01T08:04:30;10.40;;;6.18;;
12212;SDS011;6169;44.158;22.788;2022-07-01T08:09:32;19.77;;;5.90;;
12212;SDS011;6169;44.158;22.788;2022-07-01T08:14:36;16.40;;;6.28;;
12212;SDS011;6169;44.158;22.788;2022-07-01T08:19:39;9.65;;;6.22;;
12212;SDS011;6169;44.158;22.788;2022-07-01T08:24:41;14.95;;;6.32;;
12212;SDS011;6169;44.158;22.788;2022-07-01T08:29:46;11.07;;;5.07;;
12212;SDS011;6169;44.158;22.788;2022-07-01T08:34:49;11.60;;;6.57;;
12212;SDS011;6169;44.158;22.788;2022-07-01T08:39:51;10.63;;;6.38;;
12212;SDS011;6169;44.158;22.788;2022-07-01T08:44:55;14.20;;;5.45;;
12212;SDS011;6169;44.158;22.788;2022-07-01T08:49:59;9.88;;;6.32;;
12212;SDS011;6169;44.158;22.788;2022-07-01T08:55:03;11.10;;;5.90;;
12212;SDS011;6169;44.158;22.788;2022-07-01T09:00:08;16.42;;;6.13;;
12212;SDS011;6169;44.158;22.788;2022-07-01T09:05:11;10.82;;;6.28;;
12212;SDS011;6169;44.158;22.788;2022-07-01T09:10:14;9.57;;;5.90;;
12212;SDS011;6169;44.158;22.788;2022-07-01T09:15:25;13.02;;;6.18;;
12212;SDS011;6169;44.158;22.788;2022-07-01T09:20:28;13.75;;;6.15;;
12212;SDS011;6169;44.158;22.788;2022-07-01T09:25:34;17.90;;;6.53;;
12212;SDS011;6169;44.158;22.788;2022-07-01T09:30:41;10.82;;;5.85;;
12212;SDS011;6169;44.158;22.788;2022-07-01T09:35:46;17.25;;;6.43;;
12212;SDS011;6169;44.158;22.788;2022-07-01T09:40:51;15.50;;;7.05;;
12212;SDS011;6169;44.158;22.788;2022-07-01T09:45:57;11.52;;;5.72;;
12212;SDS011;6169;44.158;22.788;2022-07-01T09:51:03;10.70;;;5.63;;
12212;SDS011;6169;44.158;22.788;2022-07-01T09:56:06;14.00;;;5.78;;
12212;SDS011;6169;44.158;22.788;2022-07-01T10:01:10;10.70;;;5.57;;
12212;SDS011;6169;44.158;22.788;2022-07-01T10:06:33;9.70;;;6.18;;
12212;SDS011;6169;44.158;22.788;2022-07-01T10:12:17;13.05;;;6.18;;
12212;SDS011;6169;44.158;22.788;2022-07-01T10:17:34;7.90;;;5.35;;
12212;SDS011;6169;44.158;22.788;2022-07-01T10:22:38;10.20;;;5.38;;
12212;SDS011;6169;44.158;22.788;2022-07-01T10:27:42;8.23;;;5.40;;
12212;SDS011;6169;44.158;22.788;2022-07-01T10:32:48;13.88;;;5.10;;
12212;SDS011;6169;44.158;22.788;2022-07-01T10:37:56;7.75;;;5.30;;
12212;SDS011;6169;44.158;22.788;2022-07-01T10:42:59;12.48;;;5.20;;
12212;SDS011;6169;44.158;22.788;2022-07-01T10:53:46;9.75;;;5.00;;
12212;SDS011;6169;44.158;22.788;2022-07-01T10:58:49;10.05;;;4.93;;
12212;SDS011;6169;44.158;22.788;2022-07-01T11:04:02;6.95;;;5.00;;
12212;SDS011;6169;44.158;22.788;2022-07-01T11:09:07;16.02;;;5.63;;
12212;SDS011;6169;44.158;22.788;2022-07-01T11:14:09;9.10;;;4.82;;
12212;SDS011;6169;44.158;22.788;2022-07-01T11:19:11;9.52;;;4.47;;
12212;SDS011;6169;44.158;22.788;2022-07-01T11:24:15;7.28;;;5.18;;
12212;SDS011;6169;44.158;22.788;2022-07-01T11:29:24;8.15;;;4.68;;
12212;SDS011;6169;44.158;22.788;2022-07-01T11:34:28;6.40;;;4.95;;
12212;SDS011;6169;44.158;22.788;2022-07-01T11:39:33;11.50;;;5.25;;
12212;SDS011;6169;44.158;22.788;2022-07-01T11:44:36;8.18;;;5.18;;
12212;SDS011;6169;44.158;22.788;2022-07-01T11:49:43;7.57;;;5.20;;
12212;SDS011;6169;44.158;22.788;2022-07-01T11:54:49;5.37;;;4.93;;
12212;SDS011;6169;44.158;22.788;2022-07-01T11:59:53;15.00;;;4.85;;
12212;SDS011;6169;44.158;22.788;2022-07-01T12:04:59;9.00;;;5.60;;
12212;SDS011;6169;44.158;22.788;2022-07-01T12:10:03;10.82;;;5.88;;
12212;SDS011;6169;44.158;22.788;2022-07-01T12:15:06;13.95;;;4.60;;
12212;SDS011;6169;44.158;22.788;2022-07-01T12:20:16;10.60;;;4.88;;
12212;SDS011;6169;44.158;22.788;2022-07-01T12:25:34;7.40;;;5.87;;
12212;SDS011;6169;44.158;22.788;2022-07-01T12:30:39;7.25;;;4.90;;
12212;SDS011;6169;44.158;22.788;2022-07-01T12:35:41;10.00;;;4.97;;
12212;SDS011;6169;44.158;22.788;2022-07-01T12:40:46;9.63;;;4.78;;
12212;SDS011;6169;44.158;22.788;2022-07-01T12:45:48;7.35;;;5.00;;
12212;SDS011;6169;44.158;22.788;2022-07-01T12:50:54;5.55;;;4.82;;
12212;SDS011;6169;44.158;22.788;2022-07-01T12:55:59;8.55;;;7.10;;
12212;SDS011;6169;44.158;22.788;2022-07-01T13:01:03;6.00;;;4.63;;
12212;SDS011;6169;44.158;22.788;2022-07-01T13:06:06;5.38;;;4.38;;
12212;SDS011;6169;44.158;22.788;2022-07-01T13:11:09;10.15;;;4.78;;
12212;SDS011;6169;44.158;22.788;2022-07-01T13:16:12;8.82;;;4.80;;
12212;SDS011;6169;44.158;22.788;2022-07-01T13:21:14;9.68;;;4.97;;
12212;SDS011;6169;44.158;22.788;2022-07-01T13:26:18;9.30;;;4.13;;
12212;SDS011;6169;44.158;22.788;2022-07-01T13:31:20;8.48;;;4.45;;
12212;SDS011;6169;44.158;22.788;2022-07-01T13:36:23;8.25;;;4.80;;
12212;SDS011;6169;44.158;22.788;2022-07-01T13:41:26;7.03;;;4.30;;
12212;SDS011;6169;44.158;22.788;2022-07-01T13:46:29;5.72;;;4.57;;
12212;SDS011;6169;44.158;22.788;2022-07-01T13:51:32;6.38;;;5.80;;
12212;SDS011;6169;44.158;22.788;2022-07-01T13:56:36;11.73;;;10.50;;
12212;SDS011;6169;44.158;22.788;2022-07-01T14:01:39;10.80;;;8.60;;
12212;SDS011;6169;44.158;22.788;2022-07-01T14:06:41;5.53;;;5.03;;
12212;SDS011;6169;44.158;22.788;2022-07-01T14:11:46;6.15;;;4.03;;
12212;SDS011;6169;44.158;22.788;2022-07-01T14:16:48;4.05;;;3.78;;
12212;SDS011;6169;44.158;22.788;2022-07-01T14:21:50;7.15;;;3.95;;
12212;SDS011;6169;44.158;22.788;2022-07-01T14:26:54;28.25;;;25.35;;
12212;SDS011;6169;44.158;22.788;2022-07-01T14:31:57;10.25;;;9.10;;
12212;SDS011;6169;44.158;22.788;2022-07-01T14:37:00;22.92;;;20.58;;
12212;SDS011;6169;44.158;22.788;2022-07-01T14:42:05;11.48;;;10.18;;
12212;SDS011;6169;44.158;22.788;2022-07-01T14:47:07;9.90;;;6.32;;
12212;SDS011;6169;44.158;22.788;2022-07-01T14:52:10;18.55;;;16.35;;
12212;SDS011;6169;44.158;22.788;2022-07-01T14:57:13;15.23;;;13.82;;
12212;SDS011;6169;44.158;22.788;2022-07-01T15:02:16;13.32;;;11.95;;
12212;SDS011;6169;44.158;22.788;2022-07-01T15:07:19;10.32;;;6.97;;
12212;SDS011;6169;44.158;22.788;2022-07-01T15:12:23;8.60;;;7.40;;
12212;SDS011;6169;44.158;22.788;2022-07-01T15:17:25;11.13;;;7.97;;
12212;SDS011;6169;44.158;22.788;2022-07-01T15:22:28;5.90;;;4.55;;
12212;SDS011;6169;44.158;22.788;2022-07-01T15:27:31;8.27;;;7.53;;
12212;SDS011;6169;44.158;22.788;2022-07-01T15:32:35;17.90;;;8.07;;
12212;SDS011;6169;44.158;22.788;2022-07-01T15:37:37;9.45;;;4.10;;
12212;SDS011;6169;44.158;22.788;2022-07-01T15:42:41;5.50;;;4.82;;
12212;SDS011;6169;44.158;22.788;2022-07-01T15:47:43;9.48;;;6.10;;
12212;SDS011;6169;44.158;22.788;2022-07-01T15:53:03;10.32;;;5.97;;
12212;SDS011;6169;44.158;22.788;2022-07-01T15:58:07;8.27;;;5.93;;
12212;SDS011;6169;44.158;22.788;2022-07-01T16:03:10;7.05;;;6.28;;
12212;SDS011;6169;44.158;22.788;2022-07-01T16:08:17;12.32;;;7.63;;
12212;SDS011;6169;44.158;22.788;2022-07-01T16:13:23;7.93;;;5.38;;
12212;SDS011;6169;44.158;22.788;2022-07-01T16:18:30;8.40;;;5.25;;
12212;SDS011;6169;44.158;22.788;2022-07-01T16:23:33;7.88;;;5.75;;
12212;SDS011;6169;44.158;22.788;2022-07-01T16:28:37;5.93;;;5.32;;
12212;SDS011;6169;44.158;22.788;2022-07-01T16:33:41;8.20;;;5.15;;
12212;SDS011;6169;44.158;22.788;2022-07-01T16:38:46;15.75;;;6.43;;
12212;SDS011;6169;44.158;22.788;2022-07-01T16:43:56;7.10;;;5.22;;
12212;SDS011;6169;44.158;22.788;2022-07-01T16:48:59;5.85;;;4.72;;
12212;SDS011;6169;44.158;22.788;2022-07-01T16:54:13;6.47;;;4.78;;
12212;SDS011;6169;44.158;22.788;2022-07-01T16:59:23;7.90;;;5.78;;
12212;SDS011;6169;44.158;22.788;2022-07-01T17:04:26;7.38;;;4.55;;
12212;SDS011;6169;44.158;22.788;2022-07-01T17:09:28;5.65;;;5.25;;
12212;SDS011;6169;44.158;22.788;2022-07-01T17:14:35;7.47;;;4.47;;
12212;SDS011;6169;44.158;22.788;2022-07-01T17:19:38;5.05;;;4.65;;
12212;SDS011;6169;44.158;22.788;2022-07-01T17:24:44;5.65;;;4.40;;
12212;SDS011;6169;44.158;22.788;2022-07-01T17:29:58;9.98;;;4.55;;
12212;SDS011;6169;44.158;22.788;2022-07-01T17:35:04;7.30;;;5.22;;
12212;SDS011;6169;44.158;22.788;2022-07-01T17:40:08;10.48;;;5.20;;
12212;SDS011;6169;44.158;22.788;2022-07-01T17:45:15;18.20;;;10.07;;
12212;SDS011;6169;44.158;22.788;2022-07-01T17:55:25;6.85;;;5.63;;
12212;SDS011;6169;44.158;22.788;2022-07-01T18:00:30;7.82;;;5.53;;
12212;SDS011;6169;44.158;22.788;2022-07-01T18:05:33;9.00;;;6.93;;
12212;SDS011;6169;44.158;22.788;2022-07-01T18:10:38;7.90;;;6.85;;
12212;SDS011;6169;44.158;22.788;2022-07-01T18:15:48;9.15;;;5.90;;
12212;SDS011;6169;44.158;22.788;2022-07-01T18:20:53;9.02;;;6.60;;
12212;SDS011;6169;44.158;22.788;2022-07-01T18:25:59;9.73;;;6.18;;
12212;SDS011;6169;44.158;22.788;2022-07-01T18:31:10;9.23;;;5.50;;
12212;SDS011;6169;44.158;22.788;2022-07-01T18:36:13;7.43;;;5.72;;
12212;SDS011;6169;44.158;22.788;2022-07-01T18:41:17;10.10;;;6.63;;
12212;SDS011;6169;44.158;22.788;2022-07-01T18:46:21;11.00;;;7.47;;
12212;SDS011;6169;44.158;22.788;2022-07-01T18:51:23;7.95;;;7.15;;
12212;SDS011;6169;44.158;22.788;2022-07-01T18:56:26;9.43;;;7.05;;
12212;SDS011;6169;44.158;22.788;2022-07-01T19:01:29;15.43;;;7.70;;
12212;SDS011;6169;44.158;22.788;2022-07-01T19:06:32;9.27;;;7.38;;
12212;SDS011;6169;44.158;22.788;2022-07-01T19:11:34;11.40;;;7.10;;
12212;SDS011;6169;44.158;22.788;2022-07-01T19:16:38;8.10;;;7.25;;
12212;SDS011;6169;44.158;22.788;2022-07-01T19:21:42;21.83;;;10.93;;
12212;SDS011;6169;44.158;22.788;2022-07-01T19:26:44;10.95;;;8.93;;
12212;SDS011;6169;44.158;22.788;2022-07-01T19:31:48;27.52;;;15.63;;
12212;SDS011;6169;44.158;22.788;2022-07-01T19:36:51;12.13;;;8.50;;
12212;SDS011;6169;44.158;22.788;2022-07-01T19:41:54;11.90;;;7.57;;
12212;SDS011;6169;44.158;22.788;2022-07-01T19:46:57;10.10;;;8.65;;
12212;SDS011;6169;44.158;22.788;2022-07-01T19:52:00;20.77;;;7.85;;
12212;SDS011;6169;44.158;22.788;2022-07-01T19:57:03;9.55;;;7.85;;
12212;SDS011;6169;44.158;22.788;2022-07-01T20:02:07;11.68;;;9.52;;
12212;SDS011;6169;44.158;22.788;2022-07-01T20:07:10;14.68;;;9.70;;
12212;SDS011;6169;44.158;22.788;2022-07-01T20:12:13;14.57;;;9.65;;
12212;SDS011;6169;44.158;22.788;2022-07-01T20:17:20;17.70;;;8.73;;
12212;SDS011;6169;44.158;22.788;2022-07-01T20:22:23;14.75;;;9.98;;
12212;SDS011;6169;44.158;22.788;2022-07-01T20:27:26;16.67;;;9.77;;
12212;SDS011;6169;44.158;22.788;2022-07-01T20:32:30;15.00;;;10.63;;
12212;SDS011;6169;44.158;22.788;2022-07-01T20:37:32;14.20;;;9.75;;
12212;SDS011;6169;44.158;22.788;2022-07-01T20:42:37;12.98;;;9.85;;
12212;SDS011;6169;44.158;22.788;2022-07-01T20:47:42;14.73;;;8.50;;
12212;SDS011;6169;44.158;22.788;2022-07-01T20:52:45;11.38;;;8.38;;
12212;SDS011;6169;44.158;22.788;2022-07-01T20:57:47;9.65;;;7.50;;
12212;SDS011;6169;44.158;22.788;2022-07-01T21:02:51;12.32;;;8.25;;
12212;SDS011;6169;44.158;22.788;2022-07-01T21:07:53;9.98;;;8.30;;
12212;SDS011;6169;44.158;22.788;2022-07-01T21:12:57;9.95;;;7.57;;
12212;SDS011;6169;44.158;22.788;2022-07-01T21:18:02;16.25;;;9.40;;
12212;SDS011;6169;44.158;22.788;2022-07-01T21:23:05;12.68;;;9.25;;
12212;SDS011;6169;44.158;22.788;2022-07-01T21:28:07;16.02;;;10.13;;
12212;SDS011;6169;44.158;22.788;2022-07-01T21:33:11;35.88;;;23.08;;
12212;SDS011;6169;44.158;22.788;2022-07-01T21:38:14;32.35;;;18.27;;
12212;SDS011;6169;44.158;22.788;2022-07-01T21:43:17;29.27;;;19.40;;
12212;SDS011;6169;44.158;22.788;2022-07-01T21:48:22;30.83;;;18.02;;
12212;SDS011;6169;44.158;22.788;2022-07-01T21:53:26;29.05;;;15.48;;
12212;SDS011;6169;44.158;22.788;2022-07-01T21:58:28;20.88;;;14.60;;
12212;SDS011;6169;44.158;22.788;2022-07-01T22:03:34;21.70;;;13.63;;
12212;SDS011;6169;44.158;22.788;2022-07-01T22:08:38;19.00;;;12.15;;
12212;SDS011;6169;44.158;22.788;2022-07-01T22:13:43;17.83;;;10.68;;
12212;SDS011;6169;44.158;22.788;2022-07-01T22:18:50;11.77;;;9.70;;
12212;SDS011;6169;44.158;22.788;2022-07-01T22:23:55;11.77;;;9.45;;
12212;SDS011;6169;44.158;22.788;2022-07-01T22:28:59;12.50;;;9.85;;
12212;SDS011;6169;44.158;22.788;2022-07-01T22:34:03;10.48;;;8.75;;
12212;SDS011;6169;44.158;22.788;2022-07-01T22:39:06;9.60;;;8.38;;
12212;SDS011;6169;44.158;22.788;2022-07-01T22:44:09;11.18;;;9.38;;
12212;SDS011;6169;44.158;22.788;2022-07-01T22:49:17;9.77;;;8.50;;
12212;SDS011;6169;44.158;22.788;2022-07-01T22:54:33;11.52;;;8.55;;
12212;SDS011;6169;44.158;22.788;2022-07-01T22:59:45;16.02;;;11.85;;
12212;SDS011;6169;44.158;22.788;2022-07-01T23:04:49;16.63;;;10.63;;
12212;SDS011;6169;44.158;22.788;2022-07-01T23:09:59;13.88;;;9.57;;
12212;SDS011;6169;44.158;22.788;2022-07-01T23:15:02;15.13;;;10.65;;
12212;SDS011;6169;44.158;22.788;2022-07-01T23:20:26;13.05;;;9.77;;
12212;SDS011;6169;44.158;22.788;2022-07-01T23:25:28;13.15;;;9.57;;
12212;SDS011;6169;44.158;22.788;2022-07-01T23:30:34;13.45;;;10.48;;
12212;SDS011;6169;44.158;22.788;2022-07-01T23:35:40;12.38;;;8.98;;
12212;SDS011;6169;44.158;22.788;2022-07-01T23:40:42;13.60;;;9.60;;
12212;SDS011;6169;44.158;22.788;2022-07-01T23:45:47;10.80;;;9.18;;
12212;SDS011;6169;44.158;22.788;2022-07-01T23:50:50;13.32;;;9.50;;
12212;SDS011;6169;44.158;22.788;2022-07-01T23:55:53;16.15;;;8.55;;
